»·PEaware :: N15JG KTCS-KGUP

N15JG :: KTCS-KGUP

FLIGHT INFORMATION

Flight Status: Arrived
Operator: Privately registered:
United States
More flights under this callsign
Pilot: Anonymous 11047 (11047)
Aircraft: MOONEY M-20 201 202 205 220 ATS MSE
(M20P)
More flights by this aircraft type
Origin: KTCS Truth Or Consequences Mun
United States
Destination: KGUP Gallup Mun
United States
More flights between these airports :: More routes between these airports
Route: +
File this flight plan on PilotEdge
Remarks:
Altitude:
(Current/Filed)
10,500ft
Speed:
(Current/Filed)
0kts
Departed: 14-May-18 07:48 AM
Arrived: 14-May-18 08:49 AM
Distance/Time
Traveled:
156nm/1:01
Distance/Time
To Go:
Arrived

Flight Plot

Page will automatically refresh every two minutes.

Flight plan parsing failed; only flown route is shown


Map Options




Map Legend


Flown Route
Filed Route
Departure Airport
Arrival Airport
Navaid (VOR, NDB)
Fix

Horizontal Profiles

Position Reports

Time Latitude Longitude Heading Altitude Ground
Speed
14-May-18 07:47 33.475941 -107.427336 314 10514ft 156kts
14-May-18 07:48 33.512845 -107.453437 327 10631ft 157kts
14-May-18 07:49 33.553014 -107.474069 326 10687ft 155kts
14-May-18 07:50 33.588469 -107.503959 317 10626ft 158kts
14-May-18 07:51 33.624758 -107.535243 318 10493ft 162kts
14-May-18 07:52 33.662216 -107.565100 326 10456ft 160kts
14-May-18 07:53 33.703404 -107.585842 332 10492ft 159kts
14-May-18 07:54 33.744494 -107.606027 330 10499ft 160kts
14-May-18 07:55 33.780835 -107.633737 321 10579ft 155kts
14-May-18 07:56 33.814078 -107.660392 317 10625ft 152kts
14-May-18 07:57 33.848351 -107.686863 324 10658ft 158kts
14-May-18 07:58 33.885443 -107.714812 314 10666ft 156kts
14-May-18 07:59 33.923669 -107.740301 329 10532ft 171kts
14-May-18 08:00 33.965565 -107.765446 326 10439ft 161kts
14-May-18 08:01 34.004934 -107.788744 323 10535ft 154kts
14-May-18 08:02 34.042069 -107.817160 318 10521ft 163kts
14-May-18 08:03 34.079215 -107.848456 324 10638ft 169kts
14-May-18 08:04 34.117194 -107.874400 319 10699ft 169kts
14-May-18 08:05 34.151968 -107.908037 316 10624ft 174kts
14-May-18 08:06 34.195800 -107.933522 335 10575ft 180kts
14-May-18 08:07 34.241660 -107.956548 323 10543ft 171kts
14-May-18 08:08 34.274992 -107.988708 313 10761ft 155kts
14-May-18 08:09 34.313375 -108.017607 322 10589ft 165kts
14-May-18 08:10 34.350771 -108.047849 318 10562ft 163kts
14-May-18 08:11 34.388600 -108.071005 323 10497ft 167kts
14-May-18 08:12 34.429693 -108.096684 329 10485ft 166kts
14-May-18 08:13 34.474408 -108.111780 335 10553ft 167kts
14-May-18 08:14 34.514761 -108.134594 322 10645ft 161kts
14-May-18 08:15 34.553328 -108.161448 323 10746ft 159kts
14-May-18 08:16 34.588034 -108.186725 317 10683ft 164kts
14-May-18 08:17 34.631420 -108.208441 331 10590ft 171kts
14-May-18 08:18 34.666382 -108.239686 309 10677ft 158kts
14-May-18 08:19 34.698774 -108.273360 317 10816ft 157kts
14-May-18 08:20 34.738422 -108.299636 320 10737ft 166kts
14-May-18 08:21 34.779080 -108.327790 321 10612ft 167kts
14-May-18 08:22 34.813170 -108.351521 332 10598ft 165kts
14-May-18 08:23 34.848615 -108.377286 323 10527ft 165kts
14-May-18 08:24 34.884065 -108.414547 325 10270ft 168kts
14-May-18 08:25 34.906932 -108.432695 323 10328ft 158kts
14-May-18 08:26 34.942390 -108.463015 323 10407ft 159kts
14-May-18 08:27 34.980613 -108.488243 324 10676ft 156kts
14-May-18 08:28 35.017617 -108.517795 321 10652ft 169kts
14-May-18 08:29 35.056659 -108.549731 324 10506ft 174kts
14-May-18 08:30 35.098463 -108.577589 325 10537ft 170kts
14-May-18 08:31 35.132599 -108.604105 321 10504ft 169kts
14-May-18 08:32 35.171064 -108.636790 319 10463ft 169kts
14-May-18 08:33 35.203641 -108.663434 324 10514ft 167kts
14-May-18 08:34 35.243334 -108.693037 319 10491ft 170kts
14-May-18 08:35 35.284881 -108.720913 333 10488ft 171kts
14-May-18 08:36 35.329248 -108.740903 333 9996ft 170kts
14-May-18 08:37 35.370957 -108.764581 333 9614ft 165kts
14-May-18 08:38 35.411357 -108.787355 308 9125ft 163kts
14-May-18 08:39 35.429029 -108.832003 339 8683ft 157kts
14-May-18 08:40 35.474396 -108.820858 27 7603ft 170kts
14-May-18 08:41 35.501829 -108.787134 73 7345ft 127kts
14-May-18 08:42 35.511161 -108.750509 19 7112ft 100kts
14-May-18 08:43 35.516648 -108.771537 258 6828ft 104kts
14-May-18 08:44 35.510268 -108.805070 249 7414ft 102kts
14-May-18 08:45 35.494679 -108.800028 76 7349ft 125kts
14-May-18 08:46 35.505569 -108.761815 71 7299ft 106kts
14-May-18 08:47 35.519317 -108.753140 254 6853ft 85kts
14-May-18 08:48 35.513604 -108.778465 254 6484ft 72kts
14-May-18 08:49 35.512445 -108.785042 342 6472ft 0kts
14-May-18 08:50 35.513187 -108.783976 73 6472ft 16kts
14-May-18 08:51 35.514829 -108.780890 17 6472ft 6kts
14-May-18 08:52 35.514909 -108.780974 165 6472ft 0kts
14-May-18 08:53 35.514909 -108.780974 165 6472ft 0kts
14-May-18 08:54 35.514909 -108.780974 165 6472ft 0kts
14-May-18 08:55 35.514909 -108.780974 165 6472ft 0kts

Navigation Log

Ident Type
Flight plan parsing failed, navigation log unavailable